createdAt,value
2022-11-08T05:12:19.529Z,101095.63
2022-11-08T05:15:21.960Z,101095.63
2022-11-08T05:18:24.009Z,101096.59
2022-11-08T05:21:45.545Z,101102.97
2022-11-08T05:24:47.607Z,101093.69
2022-11-08T05:27:49.884Z,101109.69
2022-11-08T05:30:55.933Z,101110.50
2022-11-08T05:34:00.008Z,101112.84
2022-11-08T05:37:02.063Z,101109.38
2022-11-08T05:40:04.776Z,101115.34
2022-11-08T05:43:06.865Z,101116.41
2022-11-08T05:46:09.187Z,101118.66
2022-11-08T05:49:11.221Z,101125.69
2022-11-08T05:52:13.496Z,101121.91
2022-11-08T05:55:15.569Z,101120.63
2022-11-08T05:58:17.852Z,101131.19
2022-11-08T06:01:20.941Z,101129.59
2022-11-08T06:04:26.016Z,101126.81
2022-11-08T06:07:28.722Z,101129.97
2022-11-08T06:10:31.077Z,101123.53
2022-11-08T06:13:36.562Z,101124.41
2022-11-08T06:16:38.883Z,101127.09
2022-11-08T06:19:40.988Z,101134.44
2022-11-08T06:22:43.556Z,101132.59
2022-11-08T06:25:48.475Z,101135.25
2022-11-08T06:28:51.145Z,101138.37
2022-11-08T06:31:53.187Z,101142.03
2022-11-08T06:34:55.476Z,101144.16
2022-11-08T06:38:00.713Z,101139.53
2022-11-08T06:41:04.383Z,101141.22
2022-11-08T06:44:06.418Z,101143.59
2022-11-08T06:47:08.709Z,101141.97
2022-11-08T06:50:10.803Z,101151.09
2022-11-08T06:53:16.720Z,101151.59
2022-11-08T06:56:19.055Z,101147.62
2022-11-08T06:59:23.066Z,101153.38
2022-11-08T07:02:25.211Z,101162.91
2022-11-08T07:05:29.284Z,101156.75
2022-11-08T07:08:32.597Z,101159.84
2022-11-08T07:11:34.896Z,101154.22
2022-11-08T07:14:36.935Z,101160.06
2022-11-08T07:17:39.326Z,101157.94
2022-11-08T07:20:42.793Z,101154.97
2022-11-08T07:23:45.111Z,101155.34
2022-11-08T07:26:47.185Z,101161.88
2022-11-08T07:29:49.480Z,101154.53
2022-11-08T07:32:52.439Z,101158.25
2022-11-08T07:35:54.924Z,101158.69
2022-11-08T07:38:57.806Z,101173.72
2022-11-08T07:42:02.088Z,101173.75
2022-11-08T07:45:05.964Z,101174.56
2022-11-08T07:48:12.853Z,101171.31
2022-11-08T07:51:15.486Z,101173.56
2022-11-08T07:54:20.644Z,101169.53
2022-11-08T07:57:23.140Z,101167.88
2022-11-08T08:00:25.448Z,101170.00
2022-11-08T08:03:27.893Z,101176.78
2022-11-08T08:06:29.966Z,101168.53
2022-11-08T08:09:34.560Z,101172.53
2022-11-08T08:12:36.581Z,101172.16
2022-11-08T08:15:39.189Z,101179.19
2022-11-08T08:18:41.215Z,101173.03
2022-11-08T08:21:43.587Z,101176.37
2022-11-08T08:24:45.621Z,101177.06
2022-11-08T08:27:52.654Z,101181.22
2022-11-08T08:30:54.709Z,101172.75
2022-11-08T08:33:57.036Z,101173.69
2022-11-08T08:36:59.084Z,101167.59
2022-11-08T08:40:01.463Z,101173.28
2022-11-08T08:43:05.147Z,101169.41
2022-11-08T08:46:07.472Z,101171.28
2022-11-08T08:49:09.576Z,101170.59
2022-11-08T08:52:21.587Z,101171.97
2022-11-08T08:55:23.965Z,101169.37
2022-11-08T08:58:26.269Z,101179.44
2022-11-08T09:01:43.558Z,101195.72
2022-11-08T09:04:45.873Z,101190.22
2022-11-08T09:07:47.944Z,101192.34
2022-11-08T09:10:57.757Z,101196.00
2022-11-08T09:13:59.797Z,101198.97
2022-11-08T09:17:02.271Z,101198.31
2022-11-08T09:20:05.861Z,101193.56
2022-11-08T09:23:10.663Z,101201.88
2022-11-08T09:26:12.724Z,101215.41
2022-11-08T09:29:15.065Z,101212.44
2022-11-08T09:32:21.650Z,101208.66
2022-11-08T09:35:35.580Z,101212.16
2022-11-08T09:38:37.637Z,101208.78
2022-11-08T09:41:42.912Z,101204.53
2022-11-08T09:44:59.972Z,101208.38
2022-11-08T09:48:07.670Z,101208.53
2022-11-08T09:51:13.754Z,101208.25
2022-11-08T09:54:31.610Z,101203.75
2022-11-08T09:58:02.714Z,101205.09
2022-11-08T10:01:13.715Z,101203.13
2022-11-08T10:04:22.419Z,101202.38
2022-11-08T10:07:34.985Z,101201.81
2022-11-08T10:10:58.149Z,101201.00
2022-11-08T10:14:18.260Z,101203.97
2022-11-08T10:17:26.499Z,101208.25
2022-11-08T10:20:57.001Z,101179.94
2022-11-08T10:24:09.366Z,101182.94
2022-11-08T10:27:19.116Z,101180.94
2022-11-08T10:30:26.923Z,101180.81
2022-11-08T10:33:37.438Z,101179.78
2022-11-08T10:36:48.461Z,101178.16
2022-11-08T10:40:05.578Z,101181.09
2022-11-08T10:43:18.467Z,101178.72
2022-11-08T10:46:47.049Z,101169.25
2022-11-08T10:49:49.871Z,101166.38
2022-11-08T10:53:00.940Z,101166.13
2022-11-08T10:56:06.031Z,101159.94
2022-11-08T10:59:31.539Z,101152.63
2022-11-08T11:02:35.572Z,101153.28
2022-11-08T11:05:42.295Z,101148.06
2022-11-08T11:09:16.821Z,101154.81
2022-11-08T11:12:18.920Z,101147.25
2022-11-08T11:15:21.538Z,101148.91
2022-11-08T11:18:35.726Z,101148.00
2022-11-08T11:21:40.792Z,101153.69
2022-11-08T11:24:50.304Z,101149.94
2022-11-08T11:27:58.938Z,101145.13
2022-11-08T11:31:04.037Z,101145.72
2022-11-08T11:34:18.848Z,101139.56
2022-11-08T11:37:42.689Z,101137.12
2022-11-08T11:40:46.948Z,101139.84
2022-11-08T11:44:07.081Z,101135.00
2022-11-08T11:47:19.164Z,101133.41
2022-11-08T11:50:28.610Z,101128.63
2022-11-08T11:53:39.501Z,101128.13
2022-11-08T11:57:00.454Z,101123.84
2022-11-08T12:00:09.671Z,101118.72
2022-11-08T12:03:36.132Z,101119.31
2022-11-08T12:06:41.965Z,101114.25
2022-11-08T12:10:21.909Z,101104.59
2022-11-08T12:13:47.860Z,101093.91
2022-11-08T12:17:14.717Z,101090.72
2022-11-08T12:20:45.863Z,101083.44
2022-11-08T12:24:08.989Z,101078.34
2022-11-08T12:27:38.557Z,101077.53
2022-11-08T12:30:56.221Z,101069.50
2022-11-08T12:34:13.814Z,101064.13
2022-11-08T12:37:25.164Z,101064.37
2022-11-08T12:40:57.091Z,101061.69
2022-11-08T12:44:24.269Z,101060.06
2022-11-08T12:47:39.008Z,101055.50
2022-11-08T12:51:01.309Z,101055.47
2022-11-08T12:54:22.621Z,101057.63
2022-11-08T12:57:28.208Z,101049.56
2022-11-08T13:00:31.483Z,101056.03
2022-11-08T13:03:42.817Z,101046.63
2022-11-08T13:06:48.056Z,101042.84
2022-11-08T13:10:14.742Z,101046.03
2022-11-08T13:13:17.010Z,101043.87
2022-11-08T13:16:21.911Z,101043.59
2022-11-08T13:19:29.724Z,101041.91
2022-11-08T13:22:32.115Z,101030.31
2022-11-08T13:25:35.811Z,101027.13
2022-11-08T13:28:48.039Z,101030.31
2022-11-08T13:32:21.110Z,101028.66
2022-11-08T13:35:33.081Z,101024.09
2022-11-08T13:39:12.768Z,101031.34
2022-11-08T13:42:17.489Z,101017.59
2022-11-08T13:45:32.514Z,101021.34
2022-11-08T13:48:37.549Z,101026.69
2022-11-08T13:51:41.392Z,101024.22
2022-11-08T13:54:51.014Z,101027.19
2022-11-08T13:58:00.003Z,101025.22
2022-11-08T14:01:05.851Z,101034.53
2022-11-08T14:04:25.095Z,101026.34
2022-11-08T14:08:07.002Z,101034.38
2022-11-08T14:11:12.485Z,101040.84
2022-11-08T14:14:48.875Z,101033.63
2022-11-08T14:18:04.986Z,101043.09
2022-11-08T14:21:07.471Z,101043.94
2022-11-08T14:24:17.504Z,101035.38
2022-11-08T14:27:38.697Z,101031.09
2022-11-08T14:30:50.518Z,101031.47
2022-11-08T14:33:54.100Z,101028.78
2022-11-08T14:36:57.831Z,101034.78
2022-11-08T14:39:59.955Z,101036.22
2022-11-08T14:43:02.252Z,101035.16
2022-11-08T14:46:12.747Z,101030.63
2022-11-08T14:49:15.600Z,101033.59
2022-11-08T14:52:22.653Z,101036.53
2022-11-08T14:55:25.794Z,101030.41
2022-11-08T14:58:29.767Z,101028.53
2022-11-08T15:01:33.017Z,101038.75
2022-11-08T15:04:40.093Z,101044.16
2022-11-08T15:07:46.576Z,101039.63
2022-11-08T15:11:02.864Z,101034.00
2022-11-08T15:14:08.450Z,101048.25
2022-11-08T15:17:33.525Z,101042.31
2022-11-08T15:20:36.178Z,101044.47
2022-11-08T15:23:49.607Z,101050.97
2022-11-08T15:27:19.329Z,101043.72
2022-11-08T15:30:30.208Z,101049.06
2022-11-08T15:33:35.975Z,101046.94
2022-11-08T15:36:38.066Z,101043.44
2022-11-08T15:39:40.393Z,101054.44
2022-11-08T15:42:48.964Z,101052.31
2022-11-08T15:45:54.144Z,101057.13
2022-11-08T15:48:58.175Z,101055.25
2022-11-08T15:52:00.812Z,101055.28
2022-11-08T15:55:02.866Z,101057.94
2022-11-08T15:58:17.140Z,101057.94
2022-11-08T16:01:20.748Z,101058.47
2022-11-08T16:04:23.663Z,101063.28
2022-11-08T16:07:25.720Z,101058.75
2022-11-08T16:10:36.504Z,101059.56
2022-11-08T16:13:39.297Z,101056.06
2022-11-08T16:16:41.617Z,101063.56
2022-11-08T16:19:43.666Z,101053.13
2022-11-08T16:22:45.960Z,101058.50
2022-11-08T16:25:51.533Z,101057.41
2022-11-08T16:28:53.825Z,101055.28
2022-11-08T16:31:55.860Z,101068.16
2022-11-08T16:34:58.157Z,101069.22
2022-11-08T16:38:00.179Z,101064.09
2022-11-08T16:41:03.684Z,101063.56
2022-11-08T16:44:05.752Z,101069.75
2022-11-08T16:47:17.304Z,101071.06
